Weather History for Shawnee, OK

Change the Weather History Date:

Wednesday, November 9, 2011

  Actual Average (KTIK) Record (KTIK)
Temperature  
Mean Temperature 48 °F -  
Max Temperature 59 °F 58 °F 80 °F (2002)
Min Temperature 37 °F 41 °F 30 °F (2000)
Degree Days  
Heating Degree Days 17    
Moisture  
Dew Point 34 °F    
Average Humidity 62    
Maximum Humidity 93    
Minimum Humidity 36    
Precipitation  
Precipitation 0.00 in - - ()
Sea Level Pressure  
Sea Level Pressure 30.31 in    
Wind  
Wind Speed 15 mph (NNW)    
Max Wind Speed 23 mph    
Max Gust Speed 33 mph    
Visibility 10 miles    
Events      
Averages and records for this station are not official NWS values.
T = Trace of Precipitation, MM = Missing Value Source: NWS Daily Summary

Daily Weather History Graph

Daily Weather History Graph

Search for Another Location

Airport:

Trip Planner

Search our weather history database for the weather conditions in past years. The results will help you decide how hot, cold, wet, or windy it might be!

Date:

Astronomy

Nov. 09, 2011 Rise Set
Actual Time 6:56 AM CST 5:25 PM CST
Civil Twilight 6:30 AM CST 5:52 PM CST
Nautical Twilight 5:59 AM CST 6:23 PM CST
Astronomical Twilight 5:29 AM CST 6:52 PM CST
Moon 4:38 PM CST (11/9) 5:53 AM CST (11/9)
Length of Visible Light 11h 22m
Length of Day
10h 29m
Waxing Gibbous, 99% of the Moon is Illuminated
Nov 9
Waxing Gibbous
Nov 10
Full
Nov 18
Last Quarter
Nov 25
New
Dec 2
First Quarter

Hourly Weather History & Observations

Time (CST) Temp. Windchill Dew Point Humidity Pressure Visibility Wind Dir Wind Speed Gust Speed Precip Events Conditions
12:35 AM 42.8 °F 33.5 °F 37.4 °F 81% 30.14 in 10.0 mi NNW 23.0 mph 29.9 mph N/A   Overcast
12:55 AM 42.8 °F 33.5 °F 35.6 °F 76% 30.15 in 10.0 mi NNW 23.0 mph 33.4 mph N/A   Overcast
1:15 AM 41.0 °F 31.1 °F 35.6 °F 81% 30.16 in 10.0 mi NNW 23.0 mph 33.4 mph N/A   Overcast
1:35 AM 41.0 °F 31.9 °F 35.6 °F 81% 30.17 in 10.0 mi NNW 19.6 mph 33.4 mph N/A   Overcast
1:55 AM 41.0 °F 31.4 °F 37.4 °F 87% 30.18 in 10.0 mi NNW 21.9 mph - N/A   Overcast
2:15 AM 41.0 °F 32.5 °F 35.6 °F 81% 30.18 in 10.0 mi NNW 17.3 mph 26.5 mph N/A   Overcast
2:35 AM 41.0 °F 31.9 °F 35.6 °F 81% 30.19 in 10.0 mi NNW 19.6 mph - N/A   Overcast
2:55 AM 41.0 °F 32.5 °F 35.6 °F 81% 30.19 in 10.0 mi NNW 17.3 mph 27.6 mph N/A   Overcast
3:15 AM 41.0 °F 32.2 °F 35.6 °F 81% 30.19 in 10.0 mi NNW 18.4 mph - N/A   Mostly Cloudy
3:35 AM 41.0 °F 34.3 °F 35.6 °F 81% 30.20 in 10.0 mi NNW 11.5 mph 18.4 mph N/A   Scattered Clouds
3:55 AM 41.0 °F 34.7 °F 35.6 °F 81% 30.21 in 10.0 mi NNW 10.4 mph - N/A   Clear
4:15 AM 41.0 °F 33.9 °F 35.6 °F 81% 30.23 in 10.0 mi NNW 12.7 mph 18.4 mph N/A   Clear
4:35 AM 41.0 °F 33.5 °F 35.6 °F 81% 30.24 in 10.0 mi NNW 13.8 mph 19.6 mph N/A   Clear
4:55 AM 41.0 °F 34.7 °F 35.6 °F 81% 30.24 in 10.0 mi NNW 10.4 mph - N/A   Clear
5:15 AM 39.2 °F 34.2 °F 35.6 °F 87% 30.26 in 10.0 mi NNW 6.9 mph - N/A   Clear
5:35 AM 37.4 °F 32.1 °F 35.6 °F 93% 30.26 in 10.0 mi NNW 6.9 mph - N/A   Clear
5:55 AM 37.4 °F 32.1 °F 35.6 °F 93% 30.27 in 10.0 mi NNW 6.9 mph - N/A   Clear
6:15 AM 37.4 °F 31.4 °F 35.6 °F 93% 30.28 in 10.0 mi NNW 8.1 mph - N/A   Clear
6:35 AM 37.4 °F 30.8 °F 35.6 °F 93% 30.28 in 10.0 mi NW 9.2 mph - N/A   Clear
7:15 AM 37.4 °F 32.1 °F 35.6 °F 93% 30.31 in 10.0 mi NW 6.9 mph - N/A   Clear
7:35 AM 39.2 °F 33.0 °F 35.6 °F 87% 30.31 in 10.0 mi NW 9.2 mph - N/A   Clear
7:55 AM 41.0 °F 34.7 °F 35.6 °F 81% 30.32 in 10.0 mi NNW 10.4 mph - N/A   Clear
8:35 AM 42.8 °F 37.0 °F 33.8 °F 70% 30.34 in 10.0 mi NNW 10.4 mph - N/A   Clear
8:55 AM 44.6 °F 38.1 °F 33.8 °F 66% 30.35 in 10.0 mi NNW 13.8 mph - N/A   Clear
9:15 AM 46.4 °F 40.4 °F 35.6 °F 66% 30.35 in 10.0 mi North 13.8 mph - N/A   Clear
9:35 AM 46.4 °F 41.1 °F 33.8 °F 62% 30.36 in 10.0 mi North 11.5 mph - N/A   Clear
9:55 AM 50.0 °F - 35.6 °F 58% 30.37 in 10.0 mi North 13.8 mph - N/A   Clear
10:15 AM 50.0 °F - 33.8 °F 54% 30.37 in 10.0 mi North 12.7 mph - N/A   Clear
10:35 AM 51.8 °F - 33.8 °F 50% 30.37 in 10.0 mi North 10.4 mph - N/A   Clear
10:55 AM 53.6 °F - 33.8 °F 47% 30.37 in 10.0 mi North 11.5 mph 17.3 mph N/A   Clear
11:15 AM 53.6 °F - 32.0 °F 44% 30.37 in 10.0 mi NNW 13.8 mph - N/A   Clear
11:35 AM 55.4 °F - 32.0 °F 41% 30.38 in 10.0 mi North 8.1 mph - N/A   Clear
11:55 AM 55.4 °F - 32.0 °F 41% 30.37 in 10.0 mi North 16.1 mph - N/A   Clear
12:15 PM 57.2 °F - 32.0 °F 38% 30.37 in 10.0 mi North 9.2 mph 18.4 mph N/A   Clear
12:35 PM 59.0 °F - 32.0 °F 36% 30.36 in 10.0 mi North 15.0 mph 20.7 mph N/A   Clear
12:55 PM 59.0 °F - 32.0 °F 36% 30.36 in 10.0 mi North 16.1 mph 23.0 mph N/A   Clear
1:15 PM 59.0 °F - 32.0 °F 36% 30.35 in 10.0 mi NNW 15.0 mph 20.7 mph N/A   Clear
1:35 PM 59.0 °F - 32.0 °F 36% 30.35 in 10.0 mi NNW 13.8 mph - N/A   Clear
1:55 PM 57.2 °F - 32.0 °F 38% 30.35 in 10.0 mi NNW 13.8 mph 21.9 mph N/A   Clear
2:15 PM 59.0 °F - 32.0 °F 36% 30.34 in 10.0 mi NNW 16.1 mph - N/A   Clear
2:35 PM 59.0 °F - 32.0 °F 36% 30.34 in 10.0 mi North 13.8 mph - N/A   Clear
2:55 PM 59.0 °F - 32.0 °F 36% 30.34 in 10.0 mi North 17.3 mph 21.9 mph N/A   Clear
3:15 PM 59.0 °F - 32.0 °F 36% 30.34 in 10.0 mi North 15.0 mph 21.9 mph N/A   Clear
3:35 PM 59.0 °F - 33.8 °F 39% 30.34 in 10.0 mi NNW 19.6 mph - N/A   Clear
3:55 PM 57.2 °F - 33.8 °F 41% 30.35 in 10.0 mi NNW 18.4 mph 23.0 mph N/A   Clear
4:15 PM 55.4 °F - 32.0 °F 41% 30.35 in 10.0 mi North 15.0 mph 21.9 mph N/A   Clear
4:35 PM 55.4 °F - 32.0 °F 41% 30.35 in 10.0 mi North 15.0 mph - N/A   Clear
4:55 PM 55.4 °F - 33.8 °F 44% 30.36 in 10.0 mi North 15.0 mph - N/A   Clear
5:15 PM 53.6 °F - 32.0 °F 44% 30.36 in 10.0 mi North 12.7 mph - N/A   Clear
5:35 PM 51.8 °F - 33.8 °F 50% 30.37 in 10.0 mi North 6.9 mph - N/A   Clear
5:55 PM 50.0 °F - 33.8 °F 54% 30.38 in 10.0 mi NNW 6.9 mph - N/A   Clear
6:35 PM 46.4 °F 42.9 °F 33.8 °F 62% 30.39 in 10.0 mi NNW 6.9 mph - N/A   Clear
6:55 PM 46.4 °F 44.3 °F 33.8 °F 62% 30.39 in 10.0 mi NNW 4.6 mph - N/A   Clear
7:15 PM 44.6 °F 40.7 °F 33.8 °F 66% 30.39 in 10.0 mi NNW 6.9 mph - N/A   Clear
7:35 PM 44.6 °F 40.7 °F 32.0 °F 61% 30.39 in 10.0 mi NNW 6.9 mph - N/A   Clear
7:55 PM 44.6 °F 41.4 °F 33.8 °F 66% 30.40 in 10.0 mi NNW 5.8 mph - N/A   Clear
8:15 PM 44.6 °F 42.2 °F 32.0 °F 61% 30.40 in 10.0 mi NNW 4.6 mph - N/A   Clear
8:35 PM 42.8 °F - 32.0 °F 66% 30.41 in 10.0 mi Calm Calm - N/A   Clear
8:55 PM 41.0 °F 39.0 °F 32.0 °F 70% 30.41 in 10.0 mi NW 3.5 mph - N/A   Clear
9:15 PM 41.0 °F - 32.0 °F 70% 30.41 in 10.0 mi Calm Calm - N/A   Clear
9:35 PM 41.0 °F - 30.2 °F 65% 30.41 in 10.0 mi Calm Calm - N/A   Clear
9:55 PM 41.0 °F - 30.2 °F 65% 30.42 in 10.0 mi Calm Calm - N/A   Clear
10:15 PM 39.2 °F - 30.2 °F 70% 30.42 in 10.0 mi Calm Calm - N/A   Clear
10:35 PM 37.4 °F - 30.2 °F 75% 30.42 in 10.0 mi Calm Calm - N/A   Clear
10:55 PM 37.4 °F - 30.2 °F 75% 30.42 in 10.0 mi Calm Calm - N/A   Clear
11:15 PM 37.4 °F - 30.2 °F 75% 30.42 in 10.0 mi Calm Calm - N/A   Clear
11:35 PM 37.4 °F - 32.0 °F 81% 30.42 in 10.0 mi Calm Calm - N/A   Clear
11:55 PM 37.4 °F - 30.2 °F 75% 30.43 in 10.0 mi Calm Calm - N/A   Clear